createdAt,value
2023-05-10T00:00:18.009Z,11.84
2023-05-10T00:01:17.788Z,11.89
2023-05-10T00:02:17.997Z,11.89
2023-05-10T00:03:17.797Z,11.83
2023-05-10T00:04:18.060Z,11.93
2023-05-10T00:05:17.772Z,11.90
2023-05-10T00:06:18.239Z,11.94
2023-05-10T00:07:18.272Z,11.93
2023-05-10T00:08:18.296Z,11.93
2023-05-10T00:09:17.695Z,11.93
2023-05-10T00:10:17.811Z,11.96
2023-05-10T00:11:18.997Z,11.99
2023-05-10T00:12:18.410Z,12.00
2023-05-10T00:13:17.677Z,11.99
2023-05-10T00:14:17.983Z,11.99
2023-05-10T00:15:17.970Z,12.00
2023-05-10T00:16:17.971Z,12.06
2023-05-10T00:17:18.562Z,12.03
2023-05-10T00:18:17.559Z,12.10
2023-05-10T00:19:17.565Z,12.08
2023-05-10T00:20:17.932Z,12.10
2023-05-10T00:21:17.566Z,12.10
2023-05-10T00:22:17.519Z,12.08
2023-05-10T00:23:17.514Z,12.07
2023-05-10T00:24:17.492Z,12.18
2023-05-10T00:25:17.506Z,12.16
2023-05-10T00:26:17.491Z,12.17
2023-05-10T00:27:17.476Z,12.17
2023-05-10T00:28:17.439Z,12.15
2023-05-10T00:29:17.562Z,12.15
2023-05-10T00:30:17.694Z,12.20
2023-05-10T00:31:17.444Z,12.27
2023-05-10T00:32:17.463Z,12.20
2023-05-10T00:33:17.402Z,12.25
2023-05-10T00:34:17.385Z,12.20
2023-05-10T00:35:17.528Z,12.23
2023-05-10T00:36:17.349Z,12.23
2023-05-10T00:37:17.374Z,12.24
2023-05-10T00:38:17.574Z,12.25
2023-05-10T00:39:17.605Z,12.23
2023-05-10T00:40:17.548Z,12.29
2023-05-10T00:41:17.303Z,12.28
2023-05-10T00:42:17.302Z,12.25
2023-05-10T00:43:17.285Z,12.26
2023-05-10T00:44:17.453Z,12.32
2023-05-10T00:45:17.285Z,12.29
2023-05-10T00:46:17.524Z,12.34
2023-05-10T00:47:17.246Z,12.27
2023-05-10T00:48:17.239Z,12.31
2023-05-10T00:49:17.244Z,12.33
2023-05-10T00:50:17.456Z,12.35
2023-05-10T00:51:17.194Z,12.38
2023-05-10T00:52:17.198Z,12.40
2023-05-10T00:53:17.181Z,12.35
2023-05-10T00:54:17.578Z,12.38
2023-05-10T00:55:17.466Z,12.38
2023-05-10T00:56:17.120Z,12.42
2023-05-10T00:57:17.137Z,12.39
2023-05-10T00:58:17.132Z,12.40
2023-05-10T00:59:17.111Z,12.39
2023-05-10T01:00:17.241Z,12.41
2023-05-10T01:01:17.113Z,12.38
2023-05-10T01:02:17.562Z,12.43
2023-05-10T01:03:17.190Z,12.40
2023-05-10T01:04:17.027Z,12.46
2023-05-10T01:05:17.135Z,12.49
2023-05-10T01:06:17.001Z,12.41
2023-05-10T01:07:16.999Z,12.49
2023-05-10T01:08:17.004Z,12.49
2023-05-10T01:09:17.007Z,12.49
2023-05-10T01:10:17.209Z,12.52
2023-05-10T01:11:16.977Z,12.51
2023-05-10T01:12:16.992Z,12.50
2023-05-10T01:13:16.993Z,12.50
2023-05-10T01:14:16.947Z,12.52
2023-05-10T01:15:16.920Z,12.53
2023-05-10T01:16:17.187Z,12.54
2023-05-10T01:17:16.893Z,12.53
2023-05-10T01:18:17.606Z,12.56
2023-05-10T01:19:16.877Z,12.53
2023-05-10T01:20:17.118Z,12.56
2023-05-10T01:21:17.608Z,12.55
2023-05-10T01:22:16.820Z,12.57
2023-05-10T01:23:16.830Z,12.58
2023-05-10T01:24:16.942Z,12.56
2023-05-10T01:25:16.787Z,12.55
2023-05-10T01:26:16.798Z,12.58
2023-05-10T01:27:16.832Z,12.57
2023-05-10T01:28:16.743Z,12.61
2023-05-10T01:29:16.759Z,12.59
2023-05-10T01:30:16.721Z,12.56
2023-05-10T01:31:16.759Z,12.57
2023-05-10T01:32:17.015Z,12.56
2023-05-10T01:33:16.729Z,12.56
2023-05-10T01:34:16.719Z,12.64
2023-05-10T01:35:16.677Z,12.59
2023-05-10T01:36:17.136Z,12.62
2023-05-10T01:37:16.660Z,12.58
2023-05-10T01:38:16.661Z,12.65
2023-05-10T01:39:16.647Z,12.51
2023-05-10T01:40:16.915Z,12.61
2023-05-10T01:41:16.633Z,12.59
2023-05-10T01:42:16.620Z,12.60
2023-05-10T01:43:16.576Z,12.58
2023-05-10T01:44:16.602Z,12.55
2023-05-10T01:45:16.585Z,12.60
2023-05-10T01:46:16.598Z,12.60
2023-05-10T01:47:16.564Z,12.64
2023-05-10T01:48:16.644Z,12.61
2023-05-10T01:49:16.518Z,12.61
2023-05-10T01:50:16.997Z,12.63
2023-05-10T01:51:16.501Z,12.59
2023-05-10T01:52:16.469Z,12.67
2023-05-10T01:53:16.472Z,12.61
2023-05-10T01:54:16.442Z,12.63
2023-05-10T01:55:16.447Z,12.58
2023-05-10T01:56:16.404Z,12.57
2023-05-10T01:57:16.585Z,12.60
2023-05-10T01:58:16.392Z,12.59
2023-05-10T01:59:16.424Z,12.68
2023-05-10T02:00:16.635Z,12.60
2023-05-10T02:01:16.421Z,12.65
2023-05-10T02:02:16.354Z,12.68
2023-05-10T02:03:16.409Z,12.70
2023-05-10T02:04:16.315Z,12.72
2023-05-10T02:05:16.343Z,12.73
2023-05-10T02:06:16.637Z,12.78
2023-05-10T02:07:16.372Z,12.81
2023-05-10T02:08:16.271Z,12.81
2023-05-10T02:09:17.062Z,12.82
2023-05-10T02:10:16.514Z,12.87
2023-05-10T02:11:16.245Z,12.90
2023-05-10T02:12:16.255Z,12.99
2023-05-10T02:13:16.301Z,12.99
2023-05-10T02:14:16.208Z,12.98
2023-05-10T02:15:16.206Z,12.98
2023-05-10T02:16:16.429Z,13.00
2023-05-10T02:17:16.178Z,13.10
2023-05-10T02:18:16.156Z,13.13
2023-05-10T02:19:16.157Z,13.11
2023-05-10T02:20:16.354Z,13.19
2023-05-10T02:21:16.584Z,13.17
2023-05-10T02:22:16.570Z,13.20
2023-05-10T02:23:16.118Z,13.27
2023-05-10T02:24:16.075Z,13.36
2023-05-10T02:25:16.107Z,13.38
2023-05-10T02:26:16.144Z,13.46
2023-05-10T02:27:16.071Z,13.50
2023-05-10T02:28:16.270Z,13.49
2023-05-10T02:29:16.103Z,13.57
2023-05-10T02:30:16.661Z,13.56
2023-05-10T02:31:16.049Z,13.60
2023-05-10T02:32:16.018Z,13.61
2023-05-10T02:33:16.134Z,13.67
2023-05-10T02:34:16.080Z,13.71
2023-05-10T02:35:16.023Z,13.72
2023-05-10T02:36:15.964Z,13.74
2023-05-10T02:37:16.675Z,13.76
2023-05-10T02:38:16.661Z,13.83
2023-05-10T02:39:15.939Z,13.84
2023-05-10T02:40:16.123Z,13.87
2023-05-10T02:41:15.932Z,13.83
2023-05-10T02:42:15.891Z,13.86
2023-05-10T02:43:15.884Z,13.83
2023-05-10T02:44:15.978Z,13.91
2023-05-10T02:45:16.604Z,13.90
2023-05-10T02:46:16.608Z,13.86
2023-05-10T02:47:16.667Z,13.93
2023-05-10T02:48:16.514Z,13.90
2023-05-10T02:49:15.811Z,13.94
2023-05-10T02:50:16.034Z,13.88
2023-05-10T02:51:16.642Z,13.89
2023-05-10T02:52:15.857Z,13.94
2023-05-10T02:53:16.682Z,14.00
2023-05-10T02:54:15.993Z,14.01
2023-05-10T02:55:16.306Z,14.00
2023-05-10T02:56:16.647Z,13.98
2023-05-10T02:57:15.722Z,13.94
2023-05-10T02:58:15.719Z,13.95
2023-05-10T02:59:15.705Z,13.97
2023-05-10T03:00:15.914Z,13.94
2023-05-10T03:01:15.711Z,13.94
2023-05-10T03:02:15.676Z,13.91
2023-05-10T03:03:15.694Z,13.91
2023-05-10T03:04:15.657Z,13.98
2023-05-10T03:05:15.646Z,13.88
2023-05-10T03:06:15.614Z,13.90
2023-05-10T03:07:15.684Z,13.88
2023-05-10T03:08:15.569Z,13.89
2023-05-10T03:09:15.695Z,13.88
2023-05-10T03:10:15.869Z,13.89
2023-05-10T03:11:15.698Z,13.85
2023-05-10T03:12:15.572Z,13.87
2023-05-10T03:13:15.717Z,13.75
2023-05-10T03:14:15.513Z,13.84
2023-05-10T03:15:15.485Z,13.84
2023-05-10T03:16:15.679Z,13.79
2023-05-10T03:17:15.697Z,13.86
2023-05-10T03:18:15.696Z,13.75
2023-05-10T03:19:15.634Z,13.75
2023-05-10T03:20:15.613Z,13.76
2023-05-10T03:21:15.423Z,13.66
2023-05-10T03:22:15.700Z,13.72
2023-05-10T03:23:15.713Z,13.65
2023-05-10T03:24:15.396Z,13.72
2023-05-10T03:25:15.383Z,13.72
2023-05-10T03:26:15.413Z,13.73
2023-05-10T03:27:15.701Z,13.69
2023-05-10T03:28:15.359Z,13.68
2023-05-10T03:29:15.345Z,13.68
2023-05-10T03:30:15.603Z,13.70
2023-05-10T03:31:15.351Z,13.73
2023-05-10T03:32:15.725Z,13.71
2023-05-10T03:33:15.289Z,13.69
2023-05-10T03:34:15.281Z,13.63
2023-05-10T03:35:15.272Z,13.67
2023-05-10T03:36:15.254Z,13.65
2023-05-10T03:37:15.229Z,13.70
2023-05-10T03:38:15.270Z,13.67
2023-05-10T03:39:15.707Z,13.63
2023-05-10T03:40:16.033Z,13.65
2023-05-10T03:41:15.711Z,13.76
2023-05-10T03:42:15.188Z,13.69
2023-05-10T03:43:15.183Z,13.73
2023-05-10T03:44:15.194Z,13.71
2023-05-10T03:45:15.136Z,13.73
2023-05-10T03:46:15.169Z,13.74
2023-05-10T03:47:15.112Z,13.75
2023-05-10T03:48:15.163Z,13.73
2023-05-10T03:49:15.397Z,13.75
2023-05-10T03:50:15.399Z,13.70
2023-05-10T03:51:15.121Z,13.77
2023-05-10T03:52:15.068Z,13.75
2023-05-10T03:53:15.051Z,13.73
2023-05-10T03:54:15.083Z,13.76
2023-05-10T03:55:15.009Z,13.73
2023-05-10T03:56:15.624Z,13.77
2023-05-10T03:57:15.019Z,13.80
2023-05-10T03:58:15.005Z,13.75
2023-05-10T03:59:15.701Z,13.83
2023-05-10T04:00:15.125Z,13.83
2023-05-10T04:01:14.944Z,13.84
2023-05-10T04:02:15.004Z,13.89
2023-05-10T04:03:14.990Z,13.83
2023-05-10T04:04:15.014Z,13.87
2023-05-10T04:05:15.197Z,13.84
2023-05-10T04:06:14.992Z,13.87
2023-05-10T04:07:14.909Z,13.85
2023-05-10T04:08:14.887Z,13.96
2023-05-10T04:09:14.889Z,13.96
2023-05-10T04:10:15.052Z,13.94
2023-05-10T04:11:15.530Z,14.02
2023-05-10T04:12:14.833Z,13.99
2023-05-10T04:13:15.935Z,14.03
2023-05-10T04:14:15.502Z,14.02
2023-05-10T04:15:15.715Z,14.01
2023-05-10T04:16:14.834Z,14.08
2023-05-10T04:17:14.808Z,14.04
2023-05-10T04:18:14.764Z,14.09
2023-05-10T04:19:14.755Z,14.05
2023-05-10T04:20:14.986Z,14.06
2023-05-10T04:21:14.744Z,14.09
2023-05-10T04:22:14.708Z,14.12
2023-05-10T04:23:14.696Z,14.07
2023-05-10T04:24:14.714Z,14.10
2023-05-10T04:25:14.665Z,14.09
2023-05-10T04:26:15.602Z,14.14
2023-05-10T04:27:15.596Z,14.17
2023-05-10T04:28:14.646Z,14.12
2023-05-10T04:29:14.661Z,14.12
2023-05-10T04:30:14.844Z,14.23
2023-05-10T04:31:14.676Z,14.22
2023-05-10T04:32:14.758Z,14.15
2023-05-10T04:33:14.573Z,14.23
2023-05-10T04:34:14.599Z,14.18
2023-05-10T04:35:14.558Z,14.13
2023-05-10T04:36:14.567Z,14.16
2023-05-10T04:37:14.902Z,14.18
2023-05-10T04:38:14.561Z,14.13
2023-05-10T04:39:14.540Z,14.18
2023-05-10T04:40:14.592Z,14.12
2023-05-10T04:41:14.472Z,14.14
2023-05-10T04:42:14.503Z,14.14
2023-05-10T04:43:14.450Z,14.09
2023-05-10T04:44:14.484Z,14.11
2023-05-10T04:45:14.464Z,14.11
2023-05-10T04:46:14.468Z,14.12
2023-05-10T04:47:14.423Z,14.10
2023-05-10T04:48:14.412Z,14.13
2023-05-10T04:49:14.408Z,14.08
2023-05-10T04:50:14.522Z,14.09
2023-05-10T04:51:14.374Z,14.09
2023-05-10T04:52:14.362Z,14.12
2023-05-10T04:53:15.953Z,14.11
2023-05-10T04:54:14.347Z,14.11
2023-05-10T04:55:14.335Z,14.13
2023-05-10T04:56:14.322Z,14.06
2023-05-10T04:57:14.305Z,14.10
2023-05-10T04:58:14.290Z,14.08
2023-05-10T04:59:14.270Z,14.09
2023-05-10T05:00:14.338Z,14.12
2023-05-10T05:01:14.646Z,14.09
2023-05-10T05:02:14.251Z,14.11
2023-05-10T05:03:14.313Z,14.08
2023-05-10T05:04:14.248Z,14.08
2023-05-10T05:05:14.209Z,14.06
2023-05-10T05:06:14.211Z,14.07
2023-05-10T05:07:14.175Z,14.02
2023-05-10T05:08:14.185Z,14.08
2023-05-10T05:09:14.170Z,14.06
2023-05-10T05:10:14.879Z,14.04
2023-05-10T05:11:14.775Z,14.05
2023-05-10T05:12:14.124Z,14.02
2023-05-10T05:13:14.197Z,14.07
2023-05-10T05:14:14.100Z,14.01
2023-05-10T05:15:14.103Z,14.05
2023-05-10T05:16:14.181Z,13.99
2023-05-10T05:17:14.064Z,14.00
2023-05-10T05:18:14.066Z,13.98
2023-05-10T05:19:14.027Z,13.99
2023-05-10T05:20:14.163Z,13.99
2023-05-10T05:21:14.022Z,13.94
2023-05-10T05:22:14.019Z,13.96
2023-05-10T05:23:14.278Z,13.94
2023-05-10T05:24:13.993Z,13.90
2023-05-10T05:25:14.297Z,13.93
2023-05-10T05:26:14.039Z,13.94
2023-05-10T05:27:13.942Z,13.89
2023-05-10T05:28:13.943Z,13.97
2023-05-10T05:29:13.906Z,13.88
2023-05-10T05:30:14.105Z,13.91
2023-05-10T05:31:13.912Z,13.92
2023-05-10T05:32:13.926Z,13.86
2023-05-10T05:33:14.423Z,13.87
2023-05-10T05:34:13.868Z,13.83
2023-05-10T05:35:14.555Z,13.94
2023-05-10T05:36:13.855Z,13.92
2023-05-10T05:37:13.870Z,13.84
2023-05-10T05:38:13.826Z,13.93
2023-05-10T05:39:13.796Z,13.84
2023-05-10T05:40:13.831Z,13.86
2023-05-10T05:41:14.557Z,13.85
2023-05-10T05:42:14.524Z,13.82
2023-05-10T05:43:13.775Z,13.88
2023-05-10T05:44:13.763Z,13.82
2023-05-10T05:45:13.855Z,13.84
2023-05-10T05:46:13.757Z,13.77
2023-05-10T05:47:13.700Z,13.74
2023-05-10T05:48:13.740Z,13.82
2023-05-10T05:49:14.669Z,13.83
2023-05-10T05:50:13.708Z,13.76
2023-05-10T05:51:13.654Z,13.76
2023-05-10T05:52:13.659Z,13.73
2023-05-10T05:53:13.668Z,13.74
2023-05-10T05:54:13.626Z,13.76
2023-05-10T05:55:13.628Z,13.73
2023-05-10T05:56:13.816Z,13.69
2023-05-10T05:57:13.828Z,13.73
2023-05-10T05:58:13.818Z,13.65
2023-05-10T05:59:13.818Z,13.65
2023-05-10T06:00:13.585Z,13.63
2023-05-10T06:01:13.545Z,13.63
2023-05-10T06:02:13.589Z,13.64
2023-05-10T06:03:13.605Z,13.64
2023-05-10T06:04:13.624Z,13.66
2023-05-10T06:05:13.743Z,13.58
2023-05-10T06:06:13.496Z,13.57
2023-05-10T06:07:13.469Z,13.53
2023-05-10T06:08:13.468Z,13.56
2023-05-10T06:09:13.457Z,13.57
2023-05-10T06:10:13.492Z,13.51
2023-05-10T06:11:13.435Z,13.51
2023-05-10T06:12:13.437Z,13.51
2023-05-10T06:13:14.091Z,13.49
2023-05-10T06:14:13.427Z,13.50
2023-05-10T06:15:14.111Z,13.45
2023-05-10T06:16:13.504Z,13.50
2023-05-10T06:17:13.358Z,13.44
2023-05-10T06:18:13.392Z,13.47
2023-05-10T06:19:13.346Z,13.44
2023-05-10T06:20:13.929Z,13.39
2023-05-10T06:21:14.208Z,13.43
2023-05-10T06:22:14.257Z,13.36
2023-05-10T06:23:13.280Z,13.35
2023-05-10T06:24:13.299Z,13.33
2023-05-10T06:25:13.271Z,13.28
2023-05-10T06:26:13.275Z,13.33
2023-05-10T06:27:13.247Z,13.30
2023-05-10T06:28:13.289Z,13.26
2023-05-10T06:29:14.115Z,13.23
2023-05-10T06:30:13.817Z,13.21
2023-05-10T06:31:13.205Z,13.25
2023-05-10T06:32:13.183Z,13.18
2023-05-10T06:33:13.189Z,13.27
2023-05-10T06:34:13.174Z,13.26
2023-05-10T06:35:13.127Z,13.27
2023-05-10T06:36:13.159Z,13.27
2023-05-10T06:37:14.091Z,13.28
2023-05-10T06:38:14.269Z,13.29
2023-05-10T06:39:13.132Z,13.26
2023-05-10T06:40:13.125Z,13.24
2023-05-10T06:41:13.078Z,13.21
2023-05-10T06:42:13.863Z,13.24
2023-05-10T06:43:13.880Z,13.18
2023-05-10T06:44:13.853Z,13.15
2023-05-10T06:45:14.175Z,13.13
2023-05-10T06:46:13.048Z,13.18
2023-05-10T06:47:13.039Z,13.15
2023-05-10T06:48:13.060Z,13.18
2023-05-10T06:49:12.979Z,13.22
2023-05-10T06:50:13.149Z,13.29
2023-05-10T06:51:13.157Z,13.35
2023-05-10T06:52:12.944Z,13.35
2023-05-10T06:53:13.373Z,13.42
2023-05-10T06:54:13.253Z,13.41
2023-05-10T06:55:13.295Z,13.44
2023-05-10T06:56:13.322Z,13.48
2023-05-10T06:57:27.708Z,13.46
2023-05-10T06:58:13.873Z,13.39
2023-05-10T06:59:12.957Z,13.42
2023-05-10T07:00:12.910Z,13.43
2023-05-10T07:01:12.971Z,13.49
2023-05-10T07:02:12.843Z,13.65
2023-05-10T07:03:12.959Z,13.81
2023-05-10T07:04:12.808Z,13.85
2023-05-10T07:05:12.836Z,14.00
2023-05-10T07:06:21.707Z,14.09
2023-05-10T07:07:13.876Z,14.28
2023-05-10T07:08:12.872Z,14.41
2023-05-10T07:09:12.885Z,14.52
2023-05-10T07:10:12.877Z,14.63
2023-05-10T07:11:12.760Z,14.78
2023-05-10T07:12:14.983Z,15.01
2023-05-10T07:13:12.958Z,15.12
2023-05-10T07:14:12.905Z,15.24
2023-05-10T07:15:12.693Z,15.37
2023-05-10T07:16:12.711Z,15.58
2023-05-10T07:17:12.957Z,15.84
2023-05-10T07:18:13.035Z,16.10
2023-05-10T07:19:12.886Z,16.55
2023-05-10T07:20:12.627Z,17.17
2023-05-10T07:21:12.671Z,17.79
2023-05-10T07:22:12.891Z,18.42
2023-05-10T07:23:12.588Z,18.98
2023-05-10T07:24:12.566Z,19.33
2023-05-10T07:25:12.580Z,19.69
2023-05-10T07:26:12.591Z,20.03
2023-05-10T07:27:12.905Z,20.03
2023-05-10T07:28:12.893Z,20.50
2023-05-10T07:29:12.891Z,20.32
2023-05-10T07:30:12.655Z,20.03
2023-05-10T07:31:12.504Z,19.71
2023-05-10T07:32:12.527Z,19.51
2023-05-10T07:33:12.538Z,19.35
2023-05-10T07:34:12.467Z,19.44
2023-05-10T07:35:12.613Z,19.51
2023-05-10T07:36:12.455Z,19.68
2023-05-10T07:37:12.675Z,19.37
2023-05-10T07:38:12.708Z,19.03
2023-05-10T07:39:16.454Z,18.57
2023-05-10T07:40:14.470Z,18.18
2023-05-10T07:41:12.799Z,17.93
2023-05-10T07:42:12.855Z,17.70
2023-05-10T07:43:12.864Z,17.41
2023-05-10T07:44:12.891Z,17.17
2023-05-10T07:45:12.908Z,16.92
2023-05-10T07:46:12.923Z,16.81
2023-05-10T07:47:12.903Z,16.75
2023-05-10T07:48:12.905Z,16.72
2023-05-10T07:49:12.904Z,16.67
2023-05-10T07:50:12.814Z,16.64
2023-05-10T07:51:12.909Z,16.52
2023-05-10T07:52:12.899Z,16.46
2023-05-10T07:53:13.203Z,16.64
2023-05-10T07:54:12.549Z,16.85
2023-05-10T07:55:13.044Z,17.03
2023-05-10T07:56:12.373Z,17.00
2023-05-10T07:57:12.372Z,16.93
2023-05-10T07:58:12.476Z,16.68
2023-05-10T07:59:13.150Z,16.46
2023-05-10T08:00:12.303Z,16.24
2023-05-10T08:01:12.311Z,16.23
2023-05-10T08:02:13.455Z,16.50
2023-05-10T08:03:13.482Z,16.89
2023-05-10T08:04:13.237Z,17.23
2023-05-10T08:05:13.115Z,17.21
2023-05-10T08:06:12.993Z,17.00
2023-05-10T08:07:12.917Z,16.69
2023-05-10T08:08:13.311Z,16.39
2023-05-10T08:09:13.229Z,16.02
2023-05-10T08:10:12.256Z,15.72
2023-05-10T08:11:13.034Z,15.36
2023-05-10T08:12:12.931Z,15.16
2023-05-10T08:13:12.834Z,14.89
2023-05-10T08:14:12.763Z,14.73
2023-05-10T08:15:13.157Z,14.52
2023-05-10T08:16:11.992Z,14.37
2023-05-10T08:17:11.978Z,14.32
2023-05-10T08:18:12.017Z,14.25
2023-05-10T08:19:11.993Z,14.23
2023-05-10T08:20:11.948Z,14.19
2023-05-10T08:21:11.942Z,14.31
2023-05-10T08:22:11.929Z,14.48
2023-05-10T08:23:11.934Z,14.87
2023-05-10T08:24:11.926Z,15.18
2023-05-10T08:25:11.940Z,15.37
2023-05-10T08:26:11.902Z,15.34
2023-05-10T08:27:11.951Z,15.22
2023-05-10T08:28:12.095Z,15.06
2023-05-10T08:29:11.831Z,14.87
2023-05-10T08:30:11.842Z,14.76
2023-05-10T08:31:11.855Z,14.62
2023-05-10T08:32:11.770Z,14.59
2023-05-10T08:33:11.835Z,14.54
2023-05-10T08:34:11.936Z,14.55
2023-05-10T08:35:11.936Z,14.60
2023-05-10T08:36:11.929Z,14.70
2023-05-10T08:37:11.734Z,14.82
2023-05-10T08:38:11.700Z,14.97
2023-05-10T08:39:22.851Z,15.07
2023-05-10T08:40:12.691Z,15.31
2023-05-10T08:41:11.704Z,15.38
2023-05-10T08:42:11.668Z,15.49
2023-05-10T08:43:11.662Z,15.51
2023-05-10T08:44:11.942Z,15.62
2023-05-10T08:45:11.647Z,15.78
2023-05-10T08:46:11.911Z,15.92
2023-05-10T08:47:11.978Z,16.23
2023-05-10T08:48:11.595Z,16.81
2023-05-10T08:49:11.603Z,17.78
2023-05-10T08:50:11.952Z,18.61
2023-05-10T08:51:11.951Z,19.16
2023-05-10T08:52:11.943Z,19.83
2023-05-10T08:53:11.581Z,22.22
2023-05-10T08:54:11.539Z,26.02
2023-05-10T08:55:11.534Z,29.04
2023-05-10T08:56:11.502Z,30.69
2023-05-10T08:57:11.511Z,31.26
2023-05-10T08:58:11.977Z,31.03
2023-05-10T08:59:11.974Z,30.84
2023-05-10T09:00:11.950Z,30.20
2023-05-10T09:01:12.038Z,29.61
2023-05-10T09:02:11.427Z,29.80
2023-05-10T09:03:11.462Z,31.19
2023-05-10T09:04:11.491Z,32.69
2023-05-10T09:05:11.630Z,32.97
2023-05-10T09:06:11.389Z,32.46
2023-05-10T09:07:11.577Z,32.02
2023-05-10T09:08:11.630Z,31.12
2023-05-10T09:09:11.372Z,30.35
2023-05-10T09:10:11.671Z,29.06
2023-05-10T09:11:11.354Z,27.92
2023-05-10T09:12:11.318Z,27.25
2023-05-10T09:13:11.323Z,27.23
2023-05-10T09:14:11.325Z,26.99
2023-05-10T09:15:11.300Z,26.76
2023-05-10T09:16:21.336Z,27.18
2023-05-10T09:17:12.291Z,28.50
2023-05-10T09:18:11.998Z,29.48
2023-05-10T09:19:11.412Z,29.92
2023-05-10T09:20:11.208Z,31.70
2023-05-10T09:21:11.622Z,34.21
2023-05-10T09:22:11.193Z,36.46
2023-05-10T09:23:11.783Z,37.97
2023-05-10T09:24:11.979Z,37.67
2023-05-10T09:25:12.018Z,39.65
2023-05-10T09:26:11.966Z,41.74
2023-05-10T09:27:11.151Z,42.67
2023-05-10T09:28:11.977Z,45.98
2023-05-10T09:29:11.983Z,49.79
2023-05-10T09:30:11.979Z,53.81
2023-05-10T09:31:12.009Z,57.41
2023-05-10T09:32:13.874Z,59.65
2023-05-10T09:33:11.986Z,60.55
2023-05-10T09:34:11.067Z,61.75
2023-05-10T09:35:11.062Z,62.63
2023-05-10T09:36:11.028Z,64.35
2023-05-10T09:37:11.954Z,66.60
2023-05-10T09:38:11.014Z,69.75
2023-05-10T09:39:11.013Z,71.83
2023-05-10T09:40:11.029Z,70.39
2023-05-10T09:41:11.012Z,69.40
2023-05-10T09:42:10.982Z,68.11
2023-05-10T09:43:11.001Z,70.33
2023-05-10T09:44:10.979Z,74.05
2023-05-10T09:45:11.004Z,74.18
2023-05-10T09:46:11.059Z,74.77
2023-05-10T09:47:10.926Z,75.44
2023-05-10T09:48:10.943Z,78.69
2023-05-10T09:49:10.901Z,80.81
2023-05-10T09:50:10.905Z,78.04
2023-05-10T09:51:10.875Z,75.04
2023-05-10T09:52:10.910Z,72.39
2023-05-10T09:53:10.847Z,68.11
2023-05-10T09:54:10.847Z,63.19
2023-05-10T09:55:10.818Z,59.95
2023-05-10T09:56:10.841Z,56.03
2023-05-10T09:57:10.790Z,53.33
2023-05-10T09:58:26.318Z,50.66
2023-05-10T09:59:10.766Z,48.90
2023-05-10T10:00:10.767Z,48.95
2023-05-10T10:01:10.809Z,50.51
2023-05-10T10:02:10.758Z,50.36
2023-05-10T10:03:10.743Z,49.70
2023-05-10T10:04:10.739Z,49.30
2023-05-10T10:05:10.754Z,50.18
2023-05-10T10:06:18.660Z,51.38
2023-05-10T10:07:12.086Z,52.83
2023-05-10T10:08:10.691Z,54.19
2023-05-10T10:09:10.655Z,56.83
2023-05-10T10:10:11.039Z,57.49
2023-05-10T10:11:11.021Z,57.69
2023-05-10T10:12:10.637Z,57.57
2023-05-10T10:13:10.626Z,57.10
2023-05-10T10:14:10.614Z,56.11
2023-05-10T10:15:11.079Z,55.26
2023-05-10T10:16:11.080Z,56.33
2023-05-10T10:17:10.588Z,59.06
2023-05-10T10:18:10.612Z,62.07
2023-05-10T10:19:10.554Z,63.67
2023-05-10T10:20:12.115Z,65.87
2023-05-10T10:21:10.555Z,68.33
2023-05-10T10:22:10.526Z,71.10
2023-05-10T10:23:11.045Z,74.51
2023-05-10T10:24:10.502Z,77.39
2023-05-10T10:25:10.481Z,79.51
2023-05-10T10:26:10.505Z,79.66
2023-05-10T10:27:10.474Z,77.53
2023-05-10T10:28:10.470Z,74.64
2023-05-10T10:29:11.056Z,71.35
2023-05-10T10:30:10.512Z,67.89
2023-05-10T10:31:11.082Z,65.00
2023-05-10T10:32:11.047Z,61.80
2023-05-10T10:33:20.599Z,61.94
2023-05-10T10:34:11.375Z,63.05
2023-05-10T10:35:10.348Z,64.55
2023-05-10T10:36:10.366Z,66.97
2023-05-10T10:37:10.352Z,73.92
2023-05-10T10:38:10.337Z,77.46
2023-05-10T10:39:10.320Z,77.32
2023-05-10T10:40:10.312Z,74.90
2023-05-10T10:41:10.282Z,75.11
2023-05-10T10:42:10.318Z,75.38
2023-05-10T10:43:10.266Z,77.67
2023-05-10T10:44:10.273Z,77.18
2023-05-10T10:45:10.236Z,77.18
2023-05-10T10:46:10.257Z,78.25
2023-05-10T10:47:10.321Z,78.62
2023-05-10T10:48:10.224Z,80.50
2023-05-10T10:49:10.183Z,80.19
2023-05-10T10:50:10.935Z,79.96
2023-05-10T10:51:11.529Z,79.29
2023-05-10T10:52:10.161Z,77.89
2023-05-10T10:53:10.209Z,78.77
2023-05-10T10:54:10.154Z,80.81
2023-05-10T10:55:10.150Z,84.55
2023-05-10T10:56:10.214Z,84.55
2023-05-10T10:57:10.093Z,83.21
2023-05-10T10:58:10.846Z,83.62
2023-05-10T10:59:10.076Z,86.02
2023-05-10T11:00:10.086Z,86.73
2023-05-10T11:01:10.122Z,87.00
2023-05-10T11:02:10.085Z,89.21
2023-05-10T11:03:10.126Z,90.95
2023-05-10T11:04:10.098Z,94.64
2023-05-10T11:05:10.062Z,93.90
2023-05-10T11:06:10.097Z,94.43
2023-05-10T11:07:09.984Z,94.64
2023-05-10T11:08:09.992Z,94.21
2023-05-10T11:09:09.954Z,95.18
2023-05-10T11:10:09.964Z,95.42
2023-05-10T11:11:10.091Z,94.61
2023-05-10T11:12:09.963Z,95.15
2023-05-10T11:13:09.930Z,95.04
2023-05-10T11:14:10.070Z,94.61
2023-05-10T11:15:10.064Z,98.55
2023-05-10T11:16:10.091Z,99.60
2023-05-10T11:17:10.160Z,98.78
2023-05-10T11:18:09.960Z,104.04
2023-05-10T11:19:10.049Z,110.32
2023-05-10T11:20:09.861Z,116.03
2023-05-10T11:21:09.812Z,122.45
2023-05-10T11:22:09.987Z,123.08
2023-05-10T11:23:09.808Z,124.26
2023-05-10T11:24:09.810Z,124.26
2023-05-10T11:25:09.970Z,122.10
2023-05-10T11:26:09.762Z,119.83
2023-05-10T11:27:09.751Z,114.92
2023-05-10T11:28:09.744Z,109.81
2023-05-10T11:29:09.738Z,109.67
2023-05-10T11:30:10.094Z,107.91
2023-05-10T11:31:09.801Z,110.10
2023-05-10T11:32:09.701Z,108.96
2023-05-10T11:33:09.808Z,108.54
2023-05-10T11:34:09.686Z,106.41
2023-05-10T11:35:09.661Z,104.62
2023-05-10T11:36:09.658Z,101.10
2023-05-10T11:37:09.615Z,96.46
2023-05-10T11:38:09.638Z,93.69
2023-05-10T11:39:10.084Z,93.07
2023-05-10T11:40:09.632Z,89.31
2023-05-10T11:41:09.576Z,87.63
2023-05-10T11:42:09.589Z,87.72
2023-05-10T11:43:09.552Z,89.60
2023-05-10T11:44:09.636Z,94.00
2023-05-10T11:45:09.540Z,97.75
2023-05-10T11:46:09.554Z,103.46
2023-05-10T11:47:09.503Z,108.12
2023-05-10T11:48:09.534Z,116.51
2023-05-10T11:49:09.483Z,121.92
2023-05-10T11:50:09.521Z,124.26
2023-05-10T11:51:09.591Z,126.03
2023-05-10T11:52:09.470Z,130.84
2023-05-10T11:53:09.434Z,133.96
2023-05-10T11:54:09.456Z,133.64
2023-05-10T11:55:09.426Z,137.58
2023-05-10T11:56:09.425Z,136.13
2023-05-10T11:57:09.395Z,135.26
2023-05-10T11:58:09.393Z,131.55
2023-05-10T11:59:09.482Z,131.14
2023-05-10T12:00:10.113Z,134.93
2023-05-10T12:01:10.119Z,135.48
2023-05-10T12:02:09.773Z,135.58
2023-05-10T12:03:09.406Z,135.26
2023-05-10T12:04:09.494Z,132.59
2023-05-10T12:05:09.335Z,127.17
2023-05-10T12:06:09.307Z,122.36
2023-05-10T12:07:09.306Z,126.50
2023-05-10T12:08:09.280Z,134.82
2023-05-10T12:09:09.291Z,138.03
2023-05-10T12:10:09.262Z,137.92
2023-05-10T12:11:09.229Z,134.18
2023-05-10T12:12:09.216Z,131.55
2023-05-10T12:13:09.217Z,135.80
2023-05-10T12:14:09.199Z,138.15
2023-05-10T12:15:09.182Z,140.69
2023-05-10T12:16:09.193Z,137.58
2023-05-10T12:17:09.178Z,137.47
2023-05-10T12:18:09.210Z,141.52
2023-05-10T12:19:09.227Z,144.93
2023-05-10T12:20:09.157Z,145.44
2023-05-10T12:21:09.115Z,150.51
2023-05-10T12:22:09.120Z,149.18
2023-05-10T12:23:09.087Z,151.19
2023-05-10T12:24:09.103Z,147.74
2023-05-10T12:25:09.060Z,143.57
2023-05-10T12:26:09.072Z,139.52
2023-05-10T12:27:09.110Z,137.92
2023-05-10T12:28:09.063Z,139.18
2023-05-10T12:29:09.004Z,138.83
2023-05-10T12:30:09.015Z,140.22
2023-05-10T12:31:08.985Z,139.75
2023-05-10T12:32:09.124Z,138.49
2023-05-10T12:33:09.039Z,141.52
2023-05-10T12:34:08.976Z,143.70
2023-05-10T12:35:08.932Z,145.06
2023-05-10T12:36:08.935Z,150.78
2023-05-10T12:37:08.933Z,155.24
2023-05-10T12:38:08.922Z,156.69
2023-05-10T12:39:08.931Z,155.10
2023-05-10T12:40:08.916Z,154.81
2023-05-10T12:41:08.915Z,152.15
2023-05-10T12:42:08.882Z,152.56
2023-05-10T12:43:08.853Z,156.10
2023-05-10T12:44:08.868Z,157.13
2023-05-10T12:45:08.854Z,156.98
2023-05-10T12:46:08.884Z,159.81
2023-05-10T12:47:08.825Z,158.61
2023-05-10T12:48:08.826Z,155.24
2023-05-10T12:49:09.770Z,153.96